CYLW/YLW METAR and TAF weather

Enter ICAO airport designator
Station Type Date Time Source
CYLW METAR 2021/04/14 20:00 UTC NOAA

CYLW 142000Z AUTO 33007KT 300V020 9SM CLR 14/M07 A3025 RMK SLP257


Station Type Date Time Source
CYLW Decoded METAR 2021/04/14 20:00 UTC NOAA

Kelowna Airport, Canada (CYLW) 49-58N 119-23W 430M
Apr 14, 2021 - 04:00 PM EDT / 2021.04.14 2000 UTC
Wind: from the NNW (330 degrees) at 8 MPH (7 KT) (direction variable):0
Visibility: 9 mile(s):0
Sky conditions: clear
Temperature: 57 F (14 C)
Dew Point: 19 F (-7 C)
Relative Humidity: 22%
Pressure (altimeter): 30.25 in. Hg (1024 hPa)
ob: CYLW 142000Z AUTO 33007KT 300V020 9SM CLR 14/M07 A3025 RMK SLP257
cycle: 20

Station Type Date Time Source
CYLW TAF 2021/04/14 19:39 UTC NOAA

TAF CYLW 141838Z 1419/1507 34012KT P6SM FEW250
BECMG 1500/1502 VRB03KT
RMK FCST BASED ON AUTO OBS. NXT FCST BY 150100Z

Example: see airport list